createdAt,value
2018-09-09T00:00:03.688Z,22.3
2018-09-09T00:00:53.445Z,22.3
2018-09-09T00:01:43.294Z,22.3
2018-09-09T00:02:33.299Z,22.3
2018-09-09T00:03:23.645Z,22.3
2018-09-09T00:04:13.160Z,22.3
2018-09-09T00:05:04.306Z,22.3
2018-09-09T00:05:54.398Z,22.3
2018-09-09T00:06:43.923Z,22.3
2018-09-09T00:07:34.000Z,22.3
2018-09-09T00:08:23.834Z,22.3
2018-09-09T00:09:14.430Z,22.3
2018-09-09T00:10:04.812Z,22.3
2018-09-09T00:10:53.637Z,22.3
2018-09-09T00:11:44.567Z,22.3
2018-09-09T00:12:32.928Z,22.3
2018-09-09T00:13:24.127Z,22.3
2018-09-09T00:14:14.187Z,22.3
2018-09-09T00:15:04.915Z,22.3
2018-09-09T00:15:54.398Z,22.3
2018-09-09T00:16:44.987Z,22.3
2018-09-09T00:17:34.752Z,22.3
2018-09-09T00:18:24.764Z,22.3
2018-09-09T00:19:14.872Z,22.3
2018-09-09T00:20:04.951Z,22.3
2018-09-09T00:20:54.942Z,22.3
2018-09-09T00:21:44.190Z,22.3
2018-09-09T00:22:35.134Z,22.3
2018-09-09T00:23:25.252Z,22.3
2018-09-09T00:42:54.783Z,22.3
2018-09-09T00:43:45.199Z,22.3
2018-09-09T00:44:35.443Z,22.3
2018-09-09T00:45:25.026Z,22.3
2018-09-09T00:46:15.055Z,22.3
2018-09-09T00:47:05.340Z,22.3
2018-09-09T00:47:55.987Z,22.3
2018-09-09T00:48:45.764Z,22.3
2018-09-09T00:49:35.627Z,22.3
2018-09-09T00:50:25.665Z,22.3
2018-09-09T00:51:15.704Z,22.3
2018-09-09T00:52:06.115Z,22.3
2018-09-09T00:52:56.107Z,22.3
2018-09-09T00:53:45.832Z,22.3
2018-09-09T00:54:36.444Z,22.3
2018-09-09T00:55:26.156Z,22.3
2018-09-09T00:56:16.617Z,22.3
2018-09-09T00:57:06.157Z,22.3
2018-09-09T00:57:57.051Z,22.3
2018-09-09T00:58:46.255Z,22.3
2018-09-09T00:59:36.062Z,22.3
2018-09-09T01:00:26.137Z,22.3
2018-09-09T01:01:16.834Z,22.3
2018-09-09T01:02:06.269Z,22.3
2018-09-09T01:02:55.770Z,22.3
2018-09-09T01:03:46.369Z,22.3
2018-09-09T01:04:36.716Z,22.3
2018-09-09T01:05:26.976Z,22.3
2018-09-09T01:06:17.335Z,22.3
2018-09-09T01:07:06.836Z,22.3
2018-09-09T01:07:57.504Z,22.3
2018-09-09T01:08:47.866Z,22.3
2018-09-09T01:09:37.367Z,22.3
2018-09-09T01:10:25.997Z,22.3
2018-09-09T01:11:17.421Z,22.3
2018-09-09T01:12:07.861Z,22.3
2018-09-09T01:12:58.403Z,22.3
2018-09-09T01:13:48.139Z,22.3
2018-09-09T01:14:38.003Z,22.3
2018-09-09T01:15:27.435Z,22.3
2018-09-09T01:16:17.276Z,22.3
2018-09-09T01:17:08.214Z,22.3
2018-09-09T01:17:58.212Z,22.3
2018-09-09T01:18:48.670Z,22.3
2018-09-09T01:19:37.893Z,22.3
2018-09-09T01:20:28.491Z,22.3
2018-09-09T01:21:18.478Z,22.3
2018-09-09T01:22:08.285Z,22.3
2018-09-09T01:22:58.347Z,22.2
2018-09-09T01:23:48.396Z,22.2
2018-09-09T01:24:38.962Z,22.2
2018-09-09T01:25:27.915Z,22.3
2018-09-09T01:26:19.152Z,22.3
2018-09-09T01:27:08.617Z,22.3
2018-09-09T01:27:59.255Z,22.3
2018-09-09T01:28:49.532Z,22.3
2018-09-09T01:29:39.208Z,22.2
2018-09-09T01:30:29.430Z,22.3
2018-09-09T01:31:18.968Z,22.3
2018-09-09T01:32:09.296Z,22.3
2018-09-09T01:32:59.659Z,22.3
2018-09-09T01:33:49.434Z,22.3
2018-09-09T01:34:39.174Z,22.3
2018-09-09T01:35:29.855Z,22.3
2018-09-09T01:36:19.399Z,22.2
2018-09-09T01:37:09.979Z,22.3
2018-09-09T01:37:59.795Z,22.2
2018-09-09T01:38:50.556Z,22.3
2018-09-09T01:39:40.155Z,22.3
2018-09-09T01:40:29.937Z,22.3
2018-09-09T01:41:19.439Z,22.3
2018-09-09T01:42:09.799Z,22.3
2018-09-09T01:43:00.137Z,22.3
2018-09-09T01:43:50.186Z,22.3
2018-09-09T01:44:39.641Z,22.3
2018-09-09T01:45:30.854Z,22.3
2018-09-09T01:46:20.074Z,22.3
2018-09-09T01:47:09.361Z,22.3
2018-09-09T01:48:00.311Z,22.3
2018-09-09T01:48:50.541Z,22.3
2018-09-09T01:49:40.606Z,22.3
2018-09-09T01:50:29.844Z,22.3
2018-09-09T01:51:21.000Z,22.3
2018-09-09T01:52:11.093Z,22.2
2018-09-09T01:53:00.886Z,22.3
2018-09-09T01:53:50.421Z,22.3
2018-09-09T01:54:41.314Z,22.2
2018-09-09T01:55:31.091Z,22.3
2018-09-09T01:56:21.208Z,22.3
2018-09-09T01:57:11.451Z,22.3
2018-09-09T01:58:01.588Z,22.3
2018-09-09T01:58:51.096Z,22.3
2018-09-09T01:59:41.655Z,22.3
2018-09-09T02:00:31.200Z,22.3
2018-09-09T02:01:21.763Z,22.3
2018-09-09T02:02:11.325Z,22.3
2018-09-09T02:03:00.792Z,22.3
2018-09-09T02:03:51.469Z,22.3
2018-09-09T02:04:41.163Z,22.3
2018-09-09T02:05:30.955Z,22.3
2018-09-09T02:06:21.102Z,22.3
2018-09-09T02:07:11.673Z,22.3
2018-09-09T02:08:01.715Z,22.3
2018-09-09T02:08:51.782Z,22.3
2018-09-09T02:09:42.135Z,22.3
2018-09-09T02:10:32.207Z,22.3
2018-09-09T02:11:22.202Z,22.3
2018-09-09T02:12:11.470Z,22.3
2018-09-09T02:13:01.837Z,22.3
2018-09-09T02:13:52.477Z,22.3
2018-09-09T02:14:43.031Z,22.3
2018-09-09T02:15:32.616Z,22.2
2018-09-09T02:16:22.932Z,22.3
2018-09-09T02:17:13.269Z,22.3
2018-09-09T02:18:02.509Z,22.3
2018-09-09T02:18:53.126Z,22.3
2018-09-09T02:19:43.578Z,22.3
2018-09-09T02:20:33.431Z,22.2
2018-09-09T02:21:22.785Z,22.3
2018-09-09T02:22:13.041Z,22.3
2018-09-09T02:23:02.316Z,22.3
2018-09-09T02:23:53.001Z,22.3
2018-09-09T02:24:42.988Z,22.3
2018-09-09T02:25:33.311Z,22.2
2018-09-09T02:26:23.719Z,22.2
2018-09-09T02:27:12.974Z,22.2
2018-09-09T02:28:03.874Z,22.2
2018-09-09T02:28:53.367Z,22.2
2018-09-09T02:29:43.926Z,22.3
2018-09-09T02:30:33.486Z,22.3
2018-09-09T02:31:23.893Z,22.2
2018-09-09T02:32:14.204Z,22.2
2018-09-09T02:33:04.254Z,22.2
2018-09-09T02:33:53.701Z,22.3
2018-09-09T02:34:44.646Z,22.2
2018-09-09T02:35:34.150Z,22.2
2018-09-09T02:36:24.486Z,22.2
2018-09-09T02:37:13.921Z,22.2
2018-09-09T02:38:04.308Z,22.2
2018-09-09T02:38:54.358Z,22.2
2018-09-09T02:39:43.963Z,22.2
2018-09-09T02:40:34.904Z,22.2
2018-09-09T02:41:24.582Z,22.2
2018-09-09T02:42:14.079Z,22.2
2018-09-09T02:43:04.925Z,22.2
2018-09-09T02:43:56.925Z,22.2
2018-09-09T02:44:44.785Z,22.2
2018-09-09T02:45:34.951Z,22.2
2018-09-09T02:46:24.978Z,22.2
2018-09-09T02:47:15.287Z,22.2
2018-09-09T02:48:04.813Z,22.2
2018-09-09T02:48:55.180Z,22.2
2018-09-09T02:49:45.470Z,22.2
2018-09-09T02:50:34.945Z,22.1
2018-09-09T02:51:25.311Z,22.2
2018-09-09T02:52:15.722Z,22.2
2018-09-09T02:53:06.105Z,22.2
2018-09-09T02:53:55.253Z,22.2
2018-09-09T02:54:45.328Z,22.2
2018-09-09T02:55:35.902Z,22.2
2018-09-09T02:56:25.707Z,22.1
2018-09-09T02:57:15.752Z,22.1
2018-09-09T02:58:05.256Z,22.1
2018-09-09T02:58:55.846Z,22.2
2018-09-09T02:59:45.414Z,22.1
2018-09-09T03:00:36.294Z,22.1
2018-09-09T03:01:25.441Z,22.1
2018-09-09T03:02:15.889Z,22.1
2018-09-09T03:03:05.879Z,22.1
2018-09-09T03:03:56.229Z,22.1
2018-09-09T03:04:46.586Z,22.1
2018-09-09T03:05:36.101Z,22.1
2018-09-09T03:06:26.433Z,22.1
2018-09-09T03:07:16.536Z,22.1
2018-09-09T03:08:06.838Z,22.1
2018-09-09T03:08:56.420Z,22.1
2018-09-09T03:09:46.705Z,22.1
2018-09-09T03:10:36.458Z,22.1
2018-09-09T03:11:26.515Z,22.1
2018-09-09T03:12:17.198Z,22.1
2018-09-09T03:13:06.973Z,22.1
2018-09-09T03:13:56.970Z,22.1
2018-09-09T03:14:46.540Z,22.1
2018-09-09T03:15:36.863Z,22.1
2018-09-09T03:16:27.197Z,22.1
2018-09-09T03:17:17.531Z,22.1
2018-09-09T03:18:07.010Z,22.1
2018-09-09T03:18:57.633Z,22.1
2018-09-09T03:19:48.376Z,22.1
2018-09-09T03:20:37.620Z,22.1
2018-09-09T03:21:28.122Z,22.1
2018-09-09T03:22:16.828Z,22.1
2018-09-09T03:23:06.660Z,22.1
2018-09-09T03:23:58.085Z,22.1
2018-09-09T03:24:47.320Z,22.1
2018-09-09T03:25:38.567Z,22.1
2018-09-09T03:26:28.290Z,22.1
2018-09-09T03:27:18.300Z,22.1
2018-09-09T03:28:08.115Z,22.1
2018-09-09T03:28:59.096Z,22.1
2018-09-09T03:29:48.475Z,22.1
2018-09-09T03:30:38.650Z,22.1
2018-09-09T03:31:28.159Z,22.1
2018-09-09T03:32:18.985Z,22.1
2018-09-09T03:33:07.915Z,22.1
2018-09-09T03:33:58.866Z,22.1
2018-09-09T03:34:48.869Z,22.1
2018-09-09T03:35:38.729Z,22.1
2018-09-09T03:36:28.724Z,22.1
2018-09-09T03:37:19.081Z,22.1
2018-09-09T03:38:08.581Z,22.1
2018-09-09T03:38:59.224Z,22.1
2018-09-09T03:39:49.249Z,22.1
2018-09-09T03:40:39.326Z,22.1
2018-09-09T03:41:29.141Z,22.1
2018-09-09T03:42:18.689Z,22.1
2018-09-09T03:43:08.944Z,22.1
2018-09-09T03:43:59.374Z,22.1
2018-09-09T03:44:48.589Z,22.1
2018-09-09T03:45:39.229Z,22.1
2018-09-09T03:46:29.242Z,22.1
2018-09-09T03:47:19.062Z,22.1
2018-09-09T03:48:09.413Z,22.1
2018-09-09T03:48:58.907Z,22.1
2018-09-09T03:49:49.219Z,22.1
2018-09-09T03:50:39.524Z,22.1
2018-09-09T03:51:29.392Z,22.1
2018-09-09T03:52:19.688Z,22.1
2018-09-09T03:53:09.501Z,22.1
2018-09-09T03:53:59.781Z,22.1
2018-09-09T03:54:49.683Z,22.1
2018-09-09T03:55:39.928Z,22.1
2018-09-09T03:56:30.538Z,22.1
2018-09-09T03:57:20.313Z,22.1
2018-09-09T03:58:10.391Z,22.1
2018-09-09T03:59:00.758Z,22.1
2018-09-09T03:59:50.755Z,22.1
2018-09-09T04:00:41.073Z,22.1
2018-09-09T04:01:30.692Z,22.1
2018-09-09T04:02:19.850Z,22.1
2018-09-09T04:03:11.005Z,22.1
2018-09-09T04:04:00.916Z,22.1
2018-09-09T04:04:50.332Z,22.1
2018-09-09T04:05:40.950Z,22.1
2018-09-09T04:06:30.969Z,22.1
2018-09-09T04:07:21.324Z,22.1
2018-09-09T04:08:10.517Z,22.1
2018-09-09T04:09:01.535Z,22.1
2018-09-09T04:09:50.997Z,22.1
2018-09-09T04:10:41.589Z,22.1
2018-09-09T04:11:31.920Z,22.1
2018-09-09T04:12:21.421Z,22.1
2018-09-09T04:13:11.978Z,22.1
2018-09-09T04:14:01.890Z,22.1
2018-09-09T04:14:51.610Z,22.1
2018-09-09T04:15:41.707Z,22.1
2018-09-09T04:16:32.232Z,22.1
2018-09-09T04:17:21.870Z,22.1
2018-09-09T04:18:12.334Z,22.1
2018-09-09T04:19:01.944Z,22.1
2018-09-09T04:19:52.272Z,22
2018-09-09T04:20:41.772Z,22
2018-09-09T04:21:32.964Z,22
2018-09-09T04:22:22.219Z,22
2018-09-09T04:23:12.443Z,22
2018-09-09T04:24:02.581Z,22
2018-09-09T04:24:52.346Z,22
2018-09-09T04:25:42.674Z,22
2018-09-09T04:26:32.109Z,22
2018-09-09T04:27:22.579Z,22
2018-09-09T04:28:12.602Z,22
2018-09-09T04:29:02.531Z,22
2018-09-09T04:29:52.177Z,22
2018-09-09T04:30:42.994Z,22
2018-09-09T04:31:32.633Z,22
2018-09-09T04:32:22.296Z,22
2018-09-09T04:33:13.289Z,21.9
2018-09-09T04:34:02.792Z,21.9
2018-09-09T04:34:52.538Z,21.9
2018-09-09T04:35:43.196Z,21.9
2018-09-09T04:36:33.795Z,21.9
2018-09-09T04:37:23.291Z,21.9
2018-09-09T04:38:13.101Z,21.9
2018-09-09T04:39:03.510Z,21.9
2018-09-09T04:39:53.238Z,21.9
2018-09-09T04:40:43.269Z,21.9
2018-09-09T04:41:33.863Z,21.9
2018-09-09T04:42:24.481Z,21.9
2018-09-09T04:43:14.063Z,21.9
2018-09-09T04:44:03.268Z,21.9
2018-09-09T04:44:54.476Z,21.9
2018-09-09T04:45:43.643Z,21.9
2018-09-09T04:46:35.128Z,21.9
2018-09-09T04:47:24.100Z,21.9
2018-09-09T04:48:13.900Z,21.9
2018-09-09T04:49:04.238Z,21.9
2018-09-09T04:49:54.516Z,21.9
2018-09-09T04:50:44.335Z,21.9
2018-09-09T04:51:34.111Z,21.9
2018-09-09T04:52:24.271Z,21.9
2018-09-09T04:53:14.468Z,21.9
2018-09-09T04:54:03.261Z,21.9
2018-09-09T05:11:42.373Z,21.8
2018-09-09T05:12:31.029Z,21.8
2018-09-09T05:13:21.713Z,21.8
2018-09-09T05:14:11.736Z,21.8
2018-09-09T05:15:00.817Z,21.8
2018-09-09T05:15:51.844Z,21.8
2018-09-09T05:16:41.934Z,21.8
2018-09-09T05:17:31.983Z,21.8
2018-09-09T05:18:22.080Z,21.8
2018-09-09T05:19:11.909Z,21.8
2018-09-09T05:20:02.173Z,21.8
2018-09-09T05:20:52.313Z,21.8
2018-09-09T05:21:42.567Z,21.8
2018-09-09T05:22:32.663Z,21.8
2018-09-09T05:23:22.408Z,21.8
2018-09-09T05:24:11.611Z,21.8
2018-09-09T05:25:02.280Z,21.8
2018-09-09T05:25:52.885Z,21.8
2018-09-09T05:26:42.708Z,21.8
2018-09-09T05:27:32.386Z,21.8
2018-09-09T05:28:22.301Z,21.8
2018-09-09T05:29:13.174Z,21.8
2018-09-09T05:30:02.920Z,21.8
2018-09-09T05:30:52.178Z,21.8
2018-09-09T05:31:42.450Z,21.8
2018-09-09T05:32:33.882Z,21.9
2018-09-09T05:33:22.913Z,21.8
2018-09-09T05:34:12.950Z,21.9
2018-09-09T05:35:03.602Z,21.9
2018-09-09T05:35:52.810Z,21.9
2018-09-09T05:36:42.970Z,21.9
2018-09-09T05:37:33.229Z,21.9
2018-09-09T05:38:23.615Z,21.9
2018-09-09T05:39:13.919Z,21.9
2018-09-09T05:40:03.382Z,21.9
2018-09-09T05:40:53.454Z,21.9
2018-09-09T05:41:43.566Z,21.9
2018-09-09T05:42:34.170Z,21.9
2018-09-09T05:43:23.954Z,21.9
2018-09-09T05:44:13.775Z,21.9
2018-09-09T05:45:04.219Z,21.9
2018-09-09T05:45:54.263Z,21.9
2018-09-09T05:46:44.424Z,21.9
2018-09-09T05:47:33.729Z,21.9
2018-09-09T05:48:24.366Z,21.9
2018-09-09T05:49:13.837Z,21.9
2018-09-09T05:50:04.481Z,21.9
2018-09-09T05:50:54.522Z,21.9
2018-09-09T05:51:44.647Z,21.9
2018-09-09T05:52:34.115Z,21.9
2018-09-09T05:53:24.412Z,21.9
2018-09-09T05:54:15.161Z,21.9
2018-09-09T05:55:05.194Z,21.9
2018-09-09T05:55:54.339Z,21.9
2018-09-09T05:56:45.218Z,21.9
2018-09-09T05:57:34.970Z,21.9
2018-09-09T05:58:24.489Z,21.9
2018-09-09T05:59:14.871Z,21.9
2018-09-09T06:00:04.898Z,21.9
2018-09-09T06:00:54.973Z,21.9
2018-09-09T06:01:45.318Z,21.9
2018-09-09T06:02:35.391Z,21.9
2018-09-09T06:03:25.127Z,21.9
2018-09-09T06:04:15.023Z,21.9
2018-09-09T06:05:05.623Z,21.9
2018-09-09T06:05:55.958Z,21.9
2018-09-09T06:06:45.383Z,21.9
2018-09-09T06:07:35.760Z,21.9
2018-09-09T06:08:25.905Z,21.9
2018-09-09T06:09:15.968Z,21.9
2018-09-09T06:10:05.957Z,21.9
2018-09-09T06:10:55.777Z,22
2018-09-09T06:11:45.514Z,22
2018-09-09T06:12:36.124Z,21.9
2018-09-09T06:13:25.402Z,21.9
2018-09-09T06:14:16.544Z,22
2018-09-09T06:15:06.422Z,21.9
2018-09-09T06:15:56.732Z,22
2018-09-09T06:16:46.546Z,22
2018-09-09T06:17:36.564Z,22
2018-09-09T06:18:26.638Z,22
2018-09-09T06:19:16.949Z,22
2018-09-09T06:20:05.922Z,22
2018-09-09T06:20:57.095Z,22
2018-09-09T06:21:46.837Z,22
2018-09-09T06:22:36.934Z,22
2018-09-09T06:23:27.210Z,22
2018-09-09T06:24:17.069Z,22
2018-09-09T06:25:07.077Z,22
2018-09-09T06:25:57.132Z,22
2018-09-09T06:26:47.191Z,22
2018-09-09T06:27:37.564Z,22.1
2018-09-09T06:28:28.004Z,22
2018-09-09T06:29:17.484Z,22.1
2018-09-09T06:30:06.362Z,22.1
2018-09-09T06:30:57.299Z,22.1
2018-09-09T06:31:46.825Z,22.1
2018-09-09T06:32:36.923Z,22.1
2018-09-09T06:33:27.720Z,22.1
2018-09-09T06:34:17.754Z,22.1
2018-09-09T06:35:07.851Z,22.1
2018-09-09T06:35:57.393Z,22.1
2018-09-09T06:36:48.006Z,22.1
2018-09-09T06:37:38.608Z,22.1
2018-09-09T06:38:28.365Z,22.1
2018-09-09T06:39:18.553Z,22.1
2018-09-09T06:40:08.256Z,22.1
2018-09-09T06:40:58.028Z,22.1
2018-09-09T06:41:48.356Z,22.1
2018-09-09T06:42:38.160Z,22.1
2018-09-09T06:43:28.245Z,22.1
2018-09-09T06:44:19.563Z,22.1
2018-09-09T06:45:08.623Z,22.1
2018-09-09T06:45:58.657Z,22.1
2018-09-09T06:46:48.728Z,22.1
2018-09-09T06:47:38.828Z,22.1
2018-09-09T06:48:28.673Z,22.1
2018-09-09T06:49:18.358Z,22.1
2018-09-09T06:50:09.346Z,22.1
2018-09-09T06:50:59.312Z,22.1
2018-09-09T06:51:49.126Z,22.1
2018-09-09T06:52:39.196Z,22.1
2018-09-09T06:53:28.900Z,22.1
2018-09-09T06:54:18.222Z,22.1
2018-09-09T06:55:10.115Z,22.2
2018-09-09T06:55:59.496Z,22.1
2018-09-09T06:56:49.785Z,22.1
2018-09-09T06:57:40.099Z,22.2
2018-09-09T06:58:29.399Z,22.2
2018-09-09T06:59:19.344Z,22.2
2018-09-09T07:00:09.760Z,22.2
2018-09-09T07:00:59.269Z,22.2
2018-09-09T07:01:49.876Z,22.2
2018-09-09T07:02:39.979Z,22.2
2018-09-09T07:03:30.270Z,22.2
2018-09-09T07:04:20.094Z,22.2
2018-09-09T07:05:09.876Z,22.2
2018-09-09T07:06:00.012Z,22.3
2018-09-09T07:06:49.964Z,22.2
2018-09-09T07:07:40.618Z,22.2
2018-09-09T07:08:29.904Z,22.2
2018-09-09T07:09:20.442Z,22.2
2018-09-09T07:10:10.221Z,22.3
2018-09-09T07:11:02.747Z,22.3
2018-09-09T07:11:54.312Z,22.3
2018-09-09T07:12:40.181Z,22.3
2018-09-09T07:13:30.828Z,22.3
2018-09-09T07:14:21.264Z,22.3
2018-09-09T07:15:10.353Z,22.3
2018-09-09T07:16:00.676Z,22.3
2018-09-09T07:16:51.008Z,22.3
2018-09-09T07:17:39.821Z,22.3
2018-09-09T07:18:31.138Z,22.3
2018-09-09T07:19:22.548Z,22.3
2018-09-09T07:20:10.986Z,22.3
2018-09-09T07:20:59.758Z,22.3
2018-09-09T07:21:51.653Z,22.3
2018-09-09T07:22:42.295Z,22.3
2018-09-09T07:23:31.068Z,22.3
2018-09-09T07:24:21.621Z,22.3
2018-09-09T07:25:10.830Z,22.3
2018-09-09T07:26:01.763Z,22.3
2018-09-09T07:26:52.456Z,22.3
2018-09-09T07:27:41.850Z,22.3
2018-09-09T07:28:33.322Z,22.3
2018-09-09T07:29:22.452Z,22.3
2018-09-09T07:30:11.772Z,22.3
2018-09-09T07:31:02.980Z,22.3
2018-09-09T07:31:51.933Z,22.3
2018-09-09T07:32:42.247Z,22.3
2018-09-09T07:33:32.062Z,22.4
2018-09-09T07:34:24.746Z,22.3
2018-09-09T07:35:12.515Z,22.3
2018-09-09T07:36:02.740Z,22.4
2018-09-09T07:36:52.885Z,22.3
2018-09-09T07:37:42.290Z,22.3
2018-09-09T07:38:32.129Z,22.4
2018-09-09T07:39:22.227Z,22.4
2018-09-09T07:40:12.662Z,22.4
2018-09-09T07:41:03.232Z,22.3
2018-09-09T07:41:52.975Z,22.3
2018-09-09T07:42:42.512Z,22.4
2018-09-09T07:43:32.552Z,22.4
2018-09-09T07:44:23.162Z,22.4
2018-09-09T07:45:13.232Z,22.4
2018-09-09T07:46:03.259Z,22.4
2018-09-09T07:46:53.600Z,22.4
2018-09-09T07:47:43.357Z,22.4
2018-09-09T07:48:32.334Z,22.4
2018-09-09T07:49:22.667Z,22.4
2018-09-09T07:50:13.600Z,22.4
2018-09-09T07:51:03.970Z,22.4
2018-09-09T07:51:53.209Z,22.4
2018-09-09T07:52:43.476Z,22.4
2018-09-09T07:53:33.835Z,22.4
2018-09-09T07:54:24.228Z,22.4
2018-09-09T07:55:13.958Z,22.4
2018-09-09T07:56:03.823Z,22.4
2018-09-09T07:56:53.001Z,22.4
2018-09-09T07:57:44.212Z,22.4
2018-09-09T07:58:33.703Z,22.4
2018-09-09T07:59:23.172Z,22.4
2018-09-09T08:00:14.419Z,22.4
2018-09-09T08:01:03.859Z,22.4
2018-09-09T08:01:54.486Z,22.4
2018-09-09T08:02:44.839Z,22.4
2018-09-09T08:03:34.689Z,22.4
2018-09-09T08:04:24.757Z,22.4
2018-09-09T08:05:14.751Z,22.4
2018-09-09T08:06:04.600Z,22.4
2018-09-09T08:06:54.650Z,22.4
2018-09-09T08:07:45.286Z,22.4
2018-09-09T08:08:35.286Z,22.4
2018-09-09T08:09:24.494Z,22.4
2018-09-09T08:10:15.104Z,22.4
2018-09-09T08:11:05.177Z,22.4
2018-09-09T08:11:55.599Z,22.4
2018-09-09T08:12:45.924Z,22.4
2018-09-09T08:13:35.654Z,22.4
2018-09-09T08:14:25.736Z,22.4
2018-09-09T08:15:15.241Z,22.4
2018-09-09T08:16:04.684Z,22.4
2018-09-09T08:16:55.681Z,22.4
2018-09-09T08:17:46.273Z,22.4
2018-09-09T08:18:35.257Z,22.4
2018-09-09T08:19:26.089Z,22.4
2018-09-09T08:20:15.892Z,22.4
2018-09-09T08:21:06.461Z,22.4
2018-09-09T08:21:55.786Z,22.5
2018-09-09T08:22:45.734Z,22.5
2018-09-09T08:23:37.207Z,22.5
2018-09-09T08:24:26.274Z,22.4
2018-09-09T08:25:15.988Z,22.5
2018-09-09T08:26:06.598Z,22.5
2018-09-09T08:26:56.953Z,22.5
2018-09-09T08:27:46.683Z,22.5
2018-09-09T08:28:36.796Z,22.5
2018-09-09T08:29:26.594Z,22.5
2018-09-09T08:30:16.643Z,22.5
2018-09-09T08:31:07.008Z,22.5
2018-09-09T08:31:56.768Z,22.5
2018-09-09T08:32:47.140Z,22.5
2018-09-09T08:33:37.100Z,22.5
2018-09-09T08:34:26.595Z,22.5
2018-09-09T08:35:17.037Z,22.5
2018-09-09T08:36:07.140Z,22.5
2018-09-09T08:36:57.143Z,22.5
2018-09-09T08:37:46.665Z,22.5
2018-09-09T08:38:37.198Z,22.5
2018-09-09T08:39:27.617Z,22.6
2018-09-09T08:40:17.725Z,22.6
2018-09-09T08:41:08.166Z,22.5
2018-09-09T08:41:57.568Z,22.5
2018-09-09T08:42:47.125Z,22.6
2018-09-09T08:43:37.775Z,22.6
2018-09-09T08:44:27.984Z,22.6
2018-09-09T08:45:17.853Z,22.6
2018-09-09T08:46:08.384Z,22.6
2018-09-09T08:46:57.652Z,22.6
2018-09-09T08:47:47.983Z,22.6
2018-09-09T08:48:38.029Z,22.6
2018-09-09T08:49:27.559Z,22.6
2018-09-09T08:50:17.609Z,22.6
2018-09-09T08:51:08.240Z,22.6
2018-09-09T08:52:00.379Z,22.6
2018-09-09T08:52:48.079Z,22.6
2018-09-09T08:53:37.822Z,22.6
2018-09-09T08:54:28.791Z,22.6
2018-09-09T08:55:18.576Z,22.6
2018-09-09T08:56:08.596Z,22.6
2018-09-09T08:56:58.693Z,22.6
2018-09-09T08:57:48.714Z,22.6
2018-09-09T08:58:39.085Z,22.6
2018-09-09T08:59:27.548Z,22.6
2018-09-09T09:00:18.926Z,22.6
2018-09-09T09:01:09.012Z,22.6
2018-09-09T09:01:58.804Z,22.6
2018-09-09T09:02:49.414Z,22.6
2018-09-09T09:03:39.196Z,22.6
2018-09-09T09:04:29.795Z,22.6
2018-09-09T09:05:19.668Z,22.6
2018-09-09T09:06:09.408Z,22.6
2018-09-09T09:06:59.395Z,22.6
2018-09-09T09:07:50.661Z,22.6
2018-09-09T09:08:39.627Z,22.6
2018-09-09T09:09:29.943Z,22.6
2018-09-09T09:26:14.927Z,22.6
2018-09-09T09:27:04.393Z,22.6
2018-09-09T09:27:54.183Z,22.6
2018-09-09T09:28:44.545Z,22.6
2018-09-09T09:29:33.790Z,22.6
2018-09-09T09:30:24.948Z,22.6
2018-09-09T09:31:14.740Z,22.6
2018-09-09T09:32:04.535Z,22.6
2018-09-09T09:32:53.467Z,22.6
2018-09-09T09:33:45.180Z,22.6
2018-09-09T09:34:34.905Z,22.6
2018-09-09T09:35:24.280Z,22.6
2018-09-09T09:36:15.097Z,22.6
2018-09-09T09:37:05.125Z,22.7
2018-09-09T09:37:55.214Z,22.7
2018-09-09T09:38:45.299Z,22.6
2018-09-09T09:39:35.956Z,22.6
2018-09-09T09:40:25.445Z,22.6
2018-09-09T09:41:14.962Z,22.6
2018-09-09T09:42:05.317Z,22.6
2018-09-09T09:42:55.655Z,22.6
2018-09-09T09:43:45.427Z,22.7
2018-09-09T09:44:35.499Z,22.6
2018-09-09T09:45:25.807Z,22.7
2018-09-09T09:46:15.574Z,22.6
2018-09-09T09:47:05.344Z,22.7
2018-09-09T09:47:56.486Z,22.7
2018-09-09T09:48:46.064Z,22.7
2018-09-09T09:49:35.634Z,22.6
2018-09-09T09:50:26.206Z,22.7
2018-09-09T09:51:15.789Z,22.7
2018-09-09T09:52:06.344Z,22.7
2018-09-09T09:52:56.937Z,22.7
2018-09-09T09:53:46.197Z,22.7
2018-09-09T09:54:35.788Z,22.7
2018-09-09T09:55:27.875Z,22.7
2018-09-09T09:56:15.783Z,22.7
2018-09-09T09:57:06.794Z,22.7
2018-09-09T09:57:56.976Z,22.8
2018-09-09T09:58:46.017Z,22.8
2018-09-09T09:59:36.552Z,22.7
2018-09-09T10:00:26.191Z,22.8
2018-09-09T10:01:16.826Z,22.8
2018-09-09T10:02:06.708Z,22.8
2018-09-09T10:02:56.851Z,22.8
2018-09-09T10:03:47.794Z,22.8
2018-09-09T10:04:36.819Z,22.8
2018-09-09T10:05:27.091Z,22.8
2018-09-09T10:06:17.413Z,22.8
2018-09-09T10:07:06.976Z,22.8
2018-09-09T10:07:58.388Z,22.8
2018-09-09T10:08:47.876Z,22.8
2018-09-09T10:09:37.958Z,22.8
2018-09-09T10:10:27.581Z,22.8
2018-09-09T10:11:17.494Z,22.8
2018-09-09T10:12:08.088Z,22.8
2018-09-09T10:12:58.195Z,22.8
2018-09-09T10:13:47.693Z,22.8
2018-09-09T10:14:37.928Z,22.8
2018-09-09T10:15:27.662Z,22.8
2018-09-09T10:16:17.760Z,22.8
2018-09-09T10:17:08.394Z,22.8
2018-09-09T10:17:58.805Z,22.8
2018-09-09T10:18:48.646Z,22.8
2018-09-09T10:19:38.177Z,22.8
2018-09-09T10:20:28.264Z,22.8
2018-09-09T10:21:18.251Z,22.8
2018-09-09T10:22:08.326Z,22.8
2018-09-09T10:22:59.306Z,22.8
2018-09-09T10:23:50.347Z,22.8
2018-09-09T10:24:38.521Z,22.8
2018-09-09T10:25:28.633Z,22.8
2018-09-09T10:26:19.286Z,22.8
2018-09-09T10:27:09.006Z,22.8
2018-09-09T10:27:58.225Z,22.8
2018-09-09T10:28:49.133Z,22.8
2018-09-09T10:29:39.178Z,22.8
2018-09-09T10:30:29.255Z,22.8
2018-09-09T10:31:19.373Z,22.8
2018-09-09T10:32:09.118Z,22.8
2018-09-09T10:33:00.298Z,22.8
2018-09-09T10:33:49.740Z,22.9
2018-09-09T10:34:39.272Z,22.9
2018-09-09T10:35:29.655Z,22.9
2018-09-09T10:36:19.425Z,22.9
2018-09-09T10:37:10.060Z,22.9
2018-09-09T10:37:59.535Z,22.9
2018-09-09T10:38:50.732Z,22.9
2018-09-09T10:39:39.977Z,22.9
2018-09-09T10:40:29.737Z,22.9
2018-09-09T10:41:20.080Z,22.9
2018-09-09T10:42:09.585Z,22.9
2018-09-09T10:43:00.719Z,22.9
2018-09-09T10:43:50.825Z,22.9
2018-09-09T10:44:39.587Z,22.9
2018-09-09T10:45:30.410Z,22.9
2018-09-09T10:46:22.702Z,22.9
2018-09-09T10:47:11.110Z,22.9
2018-09-09T10:48:01.139Z,22.9
2018-09-09T10:48:51.159Z,22.9
2018-09-09T10:49:40.731Z,22.9
2018-09-09T10:50:30.797Z,22.9
2018-09-09T10:51:20.884Z,22.9
2018-09-09T10:52:10.951Z,22.9
2018-09-09T10:53:00.797Z,22.9
2018-09-09T10:53:51.358Z,22.9
2018-09-09T10:54:41.144Z,22.9
2018-09-09T10:55:31.176Z,22.9
2018-09-09T10:56:20.819Z,22.9
2018-09-09T10:57:11.066Z,22.9
2018-09-09T10:58:01.685Z,22.9
2018-09-09T10:58:52.533Z,22.9
2018-09-09T10:59:41.210Z,22.9
2018-09-09T11:00:31.856Z,22.9
2018-09-09T11:01:21.352Z,22.9
2018-09-09T11:02:11.701Z,22.9
2018-09-09T11:03:02.076Z,22.9
2018-09-09T11:03:52.358Z,22.9
2018-09-09T11:04:42.431Z,22.9
2018-09-09T11:05:31.956Z,22.9
2018-09-09T11:06:21.983Z,22.9
2018-09-09T11:07:11.333Z,22.9
2018-09-09T11:08:02.423Z,22.9
2018-09-09T11:08:51.884Z,22.9
2018-09-09T11:09:43.157Z,22.9
2018-09-09T11:10:31.468Z,22.9
2018-09-09T11:11:21.805Z,22.9
2018-09-09T11:12:12.453Z,22.9
2018-09-09T11:13:04.654Z,22.9
2018-09-09T11:13:53.100Z,22.9
2018-09-09T11:14:43.005Z,22.9
2018-09-09T11:15:32.687Z,22.9
2018-09-09T11:16:22.510Z,22.9
2018-09-09T11:17:12.558Z,22.9
2018-09-09T11:18:03.182Z,22.9
2018-09-09T11:18:53.537Z,22.9
2018-09-09T11:19:42.809Z,22.9
2018-09-09T11:20:32.525Z,22.9
2018-09-09T11:21:22.886Z,22.9
2018-09-09T11:22:12.478Z,22.9
2018-09-09T11:23:02.721Z,22.9
2018-09-09T11:23:53.635Z,22.9
2018-09-09T11:24:45.038Z,22.9
2018-09-09T11:25:33.232Z,22.9
2018-09-09T11:26:23.260Z,22.9
2018-09-09T11:27:13.895Z,22.9
2018-09-09T11:28:03.376Z,22.9
2018-09-09T11:28:53.167Z,22.9
2018-09-09T11:29:43.515Z,22.9
2018-09-09T11:30:33.604Z,22.9
2018-09-09T11:31:23.955Z,22.9
2018-09-09T11:32:13.435Z,22.9
2018-09-09T11:33:03.921Z,22.9
2018-09-09T11:33:54.224Z,22.9
2018-09-09T11:34:44.153Z,22.9
2018-09-09T11:35:33.691Z,22.9
2018-09-09T11:36:25.844Z,22.9
2018-09-09T11:37:14.718Z,22.9
2018-09-09T11:38:04.721Z,22.9
2018-09-09T11:38:54.679Z,22.9
2018-09-09T11:39:44.634Z,22.9
2018-09-09T11:40:35.231Z,22.9
2018-09-09T11:41:25.001Z,22.9
2018-09-09T11:42:13.979Z,22.9
2018-09-09T11:43:04.824Z,22.9
2018-09-09T11:43:54.708Z,22.9
2018-09-09T11:44:44.968Z,22.9
2018-09-09T11:45:35.628Z,22.9
2018-09-09T11:46:25.084Z,22.9
2018-09-09T11:47:15.480Z,22.9
2018-09-09T11:48:04.989Z,22.9
2018-09-09T11:48:55.905Z,22.9
2018-09-09T11:49:45.980Z,22.9
2018-09-09T11:50:36.753Z,22.9
2018-09-09T11:51:26.451Z,22.9
2018-09-09T11:52:16.256Z,22.9
2018-09-09T11:53:06.334Z,22.9
2018-09-09T11:53:56.189Z,22.9
2018-09-09T11:54:45.417Z,22.9
2018-09-09T11:55:35.540Z,22.9
2018-09-09T11:56:25.347Z,22.9
2018-09-09T11:57:16.223Z,22.9
2018-09-09T11:58:05.377Z,22.9
2018-09-09T11:58:55.459Z,22.9